Time;durP1;ratioP1;P1;durP2;ratioP2;P2;SDS_P1;SDS_P2;PMS_P1;PMS_P2;Temp;Humidity;BMP_temperature;BMP_pressure;BME280_temperature;BME280_humidity;BME280_pressure;Samples;Min_cycle;Max_cycle;Signal;HPM_P1;HPM_P2
2021/11/25 00:01:50;;;;;;;9.20;5.30;;;6.70;99.90;;;;;;5108323;28;20032;-47
2021/11/25 00:04:19;;;;;;;8.52;4.75;;;6.70;99.90;;;;;;5109069;28;20020;-48
2021/11/25 00:06:44;;;;;;;8.40;5.53;;;6.60;99.90;;;;;;5108679;28;20069;-47
2021/11/25 00:09:10;;;;;;;8.63;5.00;;;6.60;99.90;;;;;;5107454;28;20427;-47
2021/11/25 00:11:36;;;;;;;8.10;5.47;;;6.50;99.90;;;;;;5108243;28;20107;-47
2021/11/25 00:14:02;;;;;;;8.15;5.35;;;6.60;99.90;;;;;;5107684;28;20223;-47
2021/11/25 00:16:28;;;;;;;9.27;5.15;;;6.50;99.90;;;;;;5108962;28;20037;-47
2021/11/25 00:18:54;;;;;;;9.70;5.55;;;6.60;99.90;;;;;;5108959;28;20095;-47
2021/11/25 00:21:20;;;;;;;9.57;5.80;;;6.50;99.90;;;;;;5103054;28;20049;-47
2021/11/25 00:23:46;;;;;;;10.70;5.50;;;6.50;99.90;;;;;;5100078;28;20531;-47
2021/11/25 00:26:12;;;;;;;8.25;5.40;;;6.50;99.90;;;;;;5108608;28;20110;-47
2021/11/25 00:28:38;;;;;;;7.82;4.80;;;6.50;99.90;;;;;;5108436;28;20074;-47
2021/11/25 00:31:04;;;;;;;8.30;5.53;;;6.50;99.90;;;;;;5107737;28;20028;-46
2021/11/25 00:33:31;;;;;;;10.40;4.63;;;6.50;99.90;;;;;;5108611;28;20024;-47
2021/11/25 00:35:56;;;;;;;9.60;4.95;;;6.60;99.90;;;;;;5108347;28;20028;-46
2021/11/25 00:38:22;;;;;;;8.65;5.03;;;6.50;99.90;;;;;;5108465;28;20106;-47
2021/11/25 00:40:48;;;;;;;6.85;4.45;;;6.50;99.90;;;;;;5106479;28;20390;-48
2021/11/25 00:43:14;;;;;;;7.47;4.15;;;6.50;99.90;;;;;;5108216;28;20122;-47
2021/11/25 00:45:39;;;;;;;8.20;4.88;;;6.50;99.90;;;;;;5108596;28;20023;-47
2021/11/25 00:48:05;;;;;;;6.68;4.90;;;6.50;99.90;;;;;;5108326;28;20039;-49
2021/11/25 00:50:31;;;;;;;7.32;4.30;;;6.50;99.90;;;;;;5107547;28;20036;-47
2021/11/25 00:52:57;;;;;;;6.07;4.38;;;6.50;99.90;;;;;;5100726;28;20043;-47
2021/11/25 00:55:22;;;;;;;7.95;4.97;;;6.50;99.90;;;;;;5111907;28;20034;-47
2021/11/25 00:57:48;;;;;;;6.70;4.15;;;6.50;99.90;;;;;;5112312;28;20020;-50
2021/11/25 01:00:17;;;;;;;9.50;5.35;;;6.50;99.90;;;;;;5111412;28;20276;-46
2021/11/25 01:02:43;;;;;;;7.55;5.03;;;6.50;99.90;;;;;;5112110;27;20043;-48
2021/11/25 01:05:11;;;;;;;7.18;5.03;;;6.50;99.90;;;;;;5111822;28;20023;-49
2021/11/25 01:07:37;;;;;;;9.38;5.25;;;6.50;99.90;;;;;;5111535;28;20036;-47
2021/11/25 01:10:05;;;;;;;8.13;5.15;;;6.50;99.90;;;;;;5111667;28;20039;-48
2021/11/25 01:12:31;;;;;;;7.18;4.80;;;6.50;99.90;;;;;;5111396;28;20081;-47
2021/11/25 01:14:57;;;;;;;7.03;4.78;;;6.50;99.90;;;;;;5111603;28;20019;-48
2021/11/25 01:17:24;;;;;;;8.73;5.05;;;6.40;99.90;;;;;;5111643;28;20027;-47
2021/11/25 01:19:50;;;;;;;9.30;4.85;;;6.40;99.90;;;;;;5110110;28;20019;-47
2021/11/25 01:22:16;;;;;;;6.88;4.47;;;6.40;99.90;;;;;;5102804;28;20576;-47
2021/11/25 01:24:41;;;;;;;6.78;4.80;;;6.40;99.90;;;;;;5106764;28;20116;-48
2021/11/25 01:27:07;;;;;;;9.70;5.55;;;6.40;99.90;;;;;;5111843;28;20024;-47
2021/11/25 01:29:33;;;;;;;8.45;5.10;;;6.40;99.90;;;;;;5111321;28;20090;-47
2021/11/25 01:31:59;;;;;;;8.73;4.90;;;6.40;99.90;;;;;;5109407;28;20027;-47
2021/11/25 01:34:24;;;;;;;7.90;4.80;;;6.40;99.90;;;;;;5110122;28;20269;-46
2021/11/25 01:36:50;;;;;;;7.60;4.90;;;6.40;99.90;;;;;;5111238;28;20469;-46
2021/11/25 01:39:17;;;;;;;6.05;4.10;;;6.40;99.90;;;;;;5111545;28;20024;-48
2021/11/25 01:41:44;;;;;;;8.10;4.57;;;6.40;99.90;;;;;;5110617;28;20054;-47
2021/11/25 01:44:10;;;;;;;7.45;4.55;;;6.30;99.90;;;;;;5111114;28;20032;-47
2021/11/25 01:46:37;;;;;;;7.82;4.55;;;6.30;99.90;;;;;;5093193;28;20039;-46
2021/11/25 01:49:03;;;;;;;7.10;4.50;;;6.30;99.90;;;;;;5111114;28;20068;-47
2021/11/25 01:51:29;;;;;;;6.85;4.53;;;6.30;99.90;;;;;;5106982;27;20027;-46
2021/11/25 01:53:55;;;;;;;6.35;4.30;;;6.30;99.90;;;;;;5102279;28;20035;-47
2021/11/25 01:56:21;;;;;;;8.93;5.63;;;6.30;99.90;;;;;;5111073;28;20024;-48
2021/11/25 01:58:48;;;;;;;8.88;4.60;;;6.30;99.90;;;;;;5111116;27;20223;-48
2021/11/25 02:01:15;;;;;;;6.95;4.38;;;6.40;99.90;;;;;;5110489;28;20107;-47
2021/11/25 02:03:42;;;;;;;7.47;4.65;;;6.30;99.90;;;;;;5111131;28;20023;-47
2021/11/25 02:06:09;;;;;;;8.43;4.45;;;6.40;99.90;;;;;;5110620;28;20131;-47
2021/11/25 02:08:35;;;;;;;7.78;4.90;;;6.40;99.90;;;;;;5110935;28;20102;-47
2021/11/25 02:11:01;;;;;;;8.02;5.32;;;6.40;99.90;;;;;;5109967;28;20034;-47
2021/11/25 02:13:28;;;;;;;8.20;5.10;;;6.40;99.90;;;;;;5110542;28;20019;-47
2021/11/25 02:15:54;;;;;;;8.20;5.13;;;6.40;99.90;;;;;;5109182;28;20035;-47
2021/11/25 02:18:22;;;;;;;7.72;5.07;;;6.40;99.90;;;;;;5110881;28;20016;-47
2021/11/25 02:20:51;;;;;;;7.53;4.90;;;6.40;99.90;;;;;;5107110;28;20119;-48
2021/11/25 02:23:18;;;;;;;7.82;4.93;;;6.30;99.90;;;;;;5090553;28;20056;-47
2021/11/25 02:25:45;;;;;;;9.30;5.43;;;6.40;99.90;;;;;;5089952;28;20027;-47
2021/11/25 02:28:11;;;;;;;8.32;5.60;;;6.40;99.90;;;;;;5090069;28;20410;-46
2021/11/25 02:30:37;;;;;;;9.60;4.72;;;6.30;99.90;;;;;;5089415;28;20405;-46
2021/11/25 02:33:03;;;;;;;9.18;5.00;;;6.30;99.90;;;;;;5089747;28;20038;-49
2021/11/25 02:35:33;;;;;;;7.68;5.22;;;6.20;99.90;;;;;;5089780;28;20016;-48
2021/11/25 02:37:59;;;;;;;7.70;4.90;;;6.10;99.90;;;;;;5089343;28;20028;-46
2021/11/25 02:40:26;;;;;;;8.15;5.80;;;6.10;99.90;;;;;;5089156;28;20063;-47
2021/11/25 02:42:56;;;;;;;7.63;5.50;;;6.10;99.90;;;;;;5089512;28;20040;-47
2021/11/25 02:45:24;;;;;;;6.87;5.00;;;6.10;99.90;;;;;;5089464;28;20107;-47
2021/11/25 02:47:50;;;;;;;11.45;5.18;;;6.10;99.90;;;;;;5089448;28;20047;-46
2021/11/25 02:50:18;;;;;;;7.60;5.35;;;6.10;99.90;;;;;;5089124;28;20020;-46
2021/11/25 02:52:45;;;;;;;7.13;5.38;;;6.10;99.90;;;;;;5094517;28;20024;-47
2021/11/25 02:55:12;;;;;;;8.07;5.55;;;6.20;99.90;;;;;;5108027;28;20032;-49
2021/11/25 02:57:39;;;;;;;8.95;5.47;;;6.10;99.90;;;;;;5101586;28;20036;-46
2021/11/25 03:00:14;;;;;;;9.43;6.22;;;6.20;99.90;;;;;;5087695;28;20118;-46
2021/11/25 03:02:39;;;;;;;9.60;5.03;;;6.10;99.90;;;;;;5087055;28;20029;-48
2021/11/25 03:05:08;;;;;;;8.02;5.72;;;6.10;99.90;;;;;;5088239;28;20039;-46
2021/11/25 03:07:34;;;;;;;8.82;5.65;;;6.20;99.90;;;;;;5086502;28;20099;-49
2021/11/25 03:10:01;;;;;;;8.68;5.18;;;6.20;99.90;;;;;;5088420;28;20080;-48
2021/11/25 03:12:26;;;;;;;8.07;5.03;;;6.10;99.90;;;;;;5087659;28;20242;-46
2021/11/25 03:14:52;;;;;;;7.85;5.25;;;6.10;99.90;;;;;;5088685;28;20512;-47
2021/11/25 03:17:19;;;;;;;7.47;5.00;;;6.10;99.90;;;;;;5088680;28;20023;-47
2021/11/25 03:19:44;;;;;;;5.95;4.53;;;6.10;99.90;;;;;;5088772;28;20056;-47
2021/11/25 03:22:11;;;;;;;8.48;5.10;;;6.10;99.90;;;;;;5086824;28;20485;-47
2021/11/25 03:24:37;;;;;;;8.85;4.82;;;6.10;99.90;;;;;;5098564;28;20111;-47
2021/11/25 03:27:02;;;;;;;7.75;4.65;;;6.10;99.90;;;;;;5088223;28;20107;-49
2021/11/25 03:29:28;;;;;;;6.78;4.70;;;6.10;99.90;;;;;;5088332;28;20539;-48
2021/11/25 03:31:54;;;;;;;8.68;4.82;;;6.10;99.90;;;;;;5088039;28;20020;-49
2021/11/25 03:34:19;;;;;;;7.72;4.85;;;6.10;99.90;;;;;;5088800;28;20020;-48
2021/11/25 03:36:45;;;;;;;7.35;4.93;;;6.10;99.90;;;;;;5088461;28;20115;-47
2021/11/25 03:39:11;;;;;;;8.82;5.45;;;6.10;99.90;;;;;;5088153;28;20057;-50
2021/11/25 03:41:36;;;;;;;8.75;5.15;;;6.10;99.90;;;;;;5088222;28;20496;-47
2021/11/25 03:44:02;;;;;;;8.80;6.35;;;6.10;99.90;;;;;;5088808;28;20036;-47
2021/11/25 03:46:30;;;;;;;9.00;5.60;;;6.10;99.90;;;;;;5087435;28;20027;-47
2021/11/25 03:48:56;;;;;;;9.13;5.88;;;6.00;99.90;;;;;;5087839;28;20025;-47
2021/11/25 03:51:22;;;;;;;8.43;5.65;;;6.10;99.90;;;;;;5089764;28;20427;-47
2021/11/25 03:53:48;;;;;;;10.85;6.82;;;6.00;99.90;;;;;;5100323;28;20024;-48
2021/11/25 03:56:15;;;;;;;9.63;5.95;;;6.00;99.90;;;;;;5109040;28;20455;-47
2021/11/25 03:58:41;;;;;;;7.95;5.63;;;6.00;99.90;;;;;;5108668;28;20473;-50
2021/11/25 04:01:08;;;;;;;9.93;6.80;;;6.00;99.90;;;;;;5108644;28;20027;-49
2021/11/25 04:03:33;;;;;;;10.23;6.53;;;6.00;99.90;;;;;;5109328;28;20067;-48
2021/11/25 04:05:59;;;;;;;9.00;6.68;;;6.10;99.90;;;;;;5109155;28;20492;-47
2021/11/25 04:08:26;;;;;;;10.70;7.43;;;6.00;99.90;;;;;;5107489;28;20035;-47
2021/11/25 04:10:52;;;;;;;12.13;7.65;;;5.90;99.90;;;;;;5108017;28;20646;-46
2021/11/25 04:13:17;;;;;;;12.90;7.47;;;5.90;99.90;;;;;;5109027;28;20030;-47
2021/11/25 04:15:43;;;;;;;12.52;7.88;;;5.80;99.90;;;;;;5108533;28;20016;-46
2021/11/25 04:18:09;;;;;;;10.52;6.95;;;5.70;99.90;;;;;;5108806;28;20015;-47
2021/11/25 04:20:35;;;;;;;10.90;6.55;;;5.70;99.90;;;;;;5107953;28;20038;-47
2021/11/25 04:23:02;;;;;;;9.90;6.93;;;5.80;99.90;;;;;;5097086;28;20095;-47
2021/11/25 04:25:28;;;;;;;11.70;7.28;;;5.90;99.90;;;;;;5111401;28;20110;-46
2021/11/25 04:27:54;;;;;;;14.65;7.70;;;5.80;99.90;;;;;;5112614;28;20118;-47
2021/11/25 04:35:34;;;;;;;11.38;7.68;;;5.80;99.90;;;;;;5112539;28;20034;-47
2021/11/25 04:38:04;;;;;;;13.25;8.40;;;5.90;99.90;;;;;;5112709;28;20023;-47
2021/11/25 04:40:37;;;;;;;12.02;8.10;;;5.90;99.90;;;;;;5112019;28;20392;-50
2021/11/25 04:43:04;;;;;;;13.93;8.32;;;5.80;99.90;;;;;;5112136;28;20177;-49
2021/11/25 04:45:30;;;;;;;11.02;7.80;;;5.70;99.90;;;;;;5112190;28;20026;-46
2021/11/25 04:47:56;;;;;;;11.73;8.02;;;5.70;99.90;;;;;;5112243;28;20031;-48
2021/11/25 04:50:22;;;;;;;13.00;8.57;;;5.70;99.90;;;;;;5111475;28;20501;-47
2021/11/25 04:52:49;;;;;;;12.88;9.27;;;5.70;99.90;;;;;;5103320;28;20496;-47
2021/11/25 04:55:15;;;;;;;13.85;8.18;;;5.80;99.90;;;;;;5071362;28;20029;-47
2021/11/25 04:57:41;;;;;;;14.15;8.95;;;5.80;99.90;;;;;;5071372;28;20069;-49
2021/11/25 05:00:08;;;;;;;12.75;9.18;;;5.80;99.90;;;;;;5071120;28;20040;-48
2021/11/25 05:02:34;;;;;;;11.57;8.02;;;5.80;99.90;;;;;;5071379;28;20025;-47
2021/11/25 05:05:01;;;;;;;14.05;8.85;;;5.90;99.90;;;;;;5071286;28;20025;-46
2021/11/25 05:07:26;;;;;;;13.95;8.45;;;5.80;99.90;;;;;;5071050;28;20103;-47
2021/11/25 05:09:52;;;;;;;13.77;8.88;;;5.80;99.90;;;;;;5071448;28;20488;-47
2021/11/25 05:12:18;;;;;;;15.57;8.75;;;5.80;99.90;;;;;;5070616;28;20028;-47
2021/11/25 05:14:43;;;;;;;11.90;8.15;;;5.80;99.90;;;;;;5071332;28;20105;-47
2021/11/25 05:17:09;;;;;;;15.15;9.38;;;5.90;99.90;;;;;;5070820;28;20020;-47
2021/11/25 05:19:35;;;;;;;12.98;8.63;;;5.90;99.90;;;;;;5071084;28;20158;-46
2021/11/25 05:22:01;;;;;;;10.90;8.13;;;5.90;99.90;;;;;;5088563;28;20019;-46
2021/11/25 05:24:26;;;;;;;14.13;9.20;;;5.90;99.90;;;;;;5104468;28;20439;-46
2021/11/25 05:26:53;;;;;;;15.38;9.68;;;5.90;99.90;;;;;;5111336;28;20035;-48
2021/11/25 05:29:19;;;;;;;13.30;8.35;;;5.80;99.90;;;;;;5111523;28;20023;-47
2021/11/25 05:31:45;;;;;;;15.32;9.38;;;5.90;99.90;;;;;;5110687;28;20030;-47
2021/11/25 05:34:10;;;;;;;13.50;8.85;;;5.90;99.90;;;;;;5111306;28;20016;-47
2021/11/25 05:36:36;;;;;;;13.88;8.50;;;5.90;99.90;;;;;;5110637;28;20385;-48
2021/11/25 05:39:02;;;;;;;13.40;9.02;;;5.90;99.90;;;;;;5111234;28;20031;-47
2021/11/25 05:41:28;;;;;;;11.30;7.85;;;5.90;99.90;;;;;;5110770;28;20028;-47
2021/11/25 05:43:53;;;;;;;16.40;9.68;;;5.90;99.90;;;;;;5109702;28;20035;-48
2021/11/25 05:46:19;;;;;;;12.55;8.85;;;5.90;99.90;;;;;;5111108;28;20020;-49
2021/11/25 05:48:45;;;;;;;13.90;9.10;;;5.90;99.90;;;;;;5110966;28;20052;-47
2021/11/25 05:51:10;;;;;;;19.05;9.73;;;5.90;99.90;;;;;;5109654;28;20047;-47
2021/11/25 05:53:36;;;;;;;15.48;10.38;;;5.80;99.90;;;;;;5101966;28;20074;-50
2021/11/25 05:56:02;;;;;;;14.23;9.27;;;5.80;99.90;;;;;;5110626;28;20068;-47
2021/11/25 05:58:27;;;;;;;15.77;9.00;;;5.80;99.90;;;;;;5110607;28;20091;-48
2021/11/25 06:00:53;;;;;;;16.45;9.57;;;5.80;99.90;;;;;;5109883;28;20390;-47
2021/11/25 06:03:19;;;;;;;13.90;9.50;;;5.70;99.90;;;;;;5111164;28;20504;-48
2021/11/25 06:05:44;;;;;;;16.52;8.90;;;5.80;99.90;;;;;;5112136;28;20135;-47
2021/11/25 06:08:10;;;;;;;12.75;9.23;;;5.80;99.90;;;;;;5111801;28;20165;-47
2021/11/25 06:10:36;;;;;;;14.63;8.70;;;5.80;99.90;;;;;;5111180;27;20587;-47
2021/11/25 06:13:02;;;;;;;13.63;8.85;;;5.80;99.90;;;;;;5111991;28;20020;-50
2021/11/25 06:15:28;;;;;;;13.52;8.77;;;5.80;99.90;;;;;;5112084;28;20031;-50
2021/11/25 06:17:53;;;;;;;12.88;8.82;;;5.80;99.90;;;;;;5111822;28;20019;-47
2021/11/25 06:20:20;;;;;;;17.70;9.40;;;5.80;99.90;;;;;;5111287;28;20050;-47
2021/11/25 06:22:51;;;;;;;13.60;9.10;;;5.80;99.90;;;;;;5102677;28;20028;-46
2021/11/25 06:25:17;;;;;;;;;;;5.80;99.90;;;;;;5096384;28;20019;-45
2021/11/25 06:27:44;;;;;;;12.57;8.60;;;5.80;99.90;;;;;;5110295;28;19904;-46
2021/11/25 06:30:11;;;;;;;11.65;8.20;;;5.80;99.90;;;;;;5111006;28;20028;-46
2021/11/25 06:32:43;;;;;;;15.00;8.55;;;5.80;99.90;;;;;;5111646;28;20015;-45
2021/11/25 06:35:11;;;;;;;13.02;8.68;;;5.80;99.90;;;;;;5111865;28;20016;-47
2021/11/25 06:37:38;;;;;;;15.73;9.02;;;5.80;99.90;;;;;;5093795;28;20035;-47
2021/11/25 06:40:04;;;;;;;11.93;8.38;;;5.80;99.90;;;;;;5071225;28;20024;-48
2021/11/25 06:42:30;;;;;;;12.65;8.65;;;5.80;99.90;;;;;;5068817;28;20025;-50
2021/11/25 06:44:56;;;;;;;15.13;8.82;;;5.70;99.90;;;;;;5069060;28;20437;-47
2021/11/25 06:47:21;;;;;;;14.65;9.38;;;5.80;99.90;;;;;;5067628;28;20036;-48
2021/11/25 06:49:47;;;;;;;15.60;8.43;;;5.70;99.90;;;;;;5068310;28;20525;-47
2021/11/25 06:52:13;;;;;;;10.98;7.40;;;5.80;99.90;;;;;;5081635;28;20016;-51
2021/11/25 06:54:38;;;;;;;15.15;9.23;;;5.70;99.90;;;;;;5100458;28;20027;-48
2021/11/25 06:57:04;;;;;;;14.52;9.05;;;5.70;99.90;;;;;;5108846;28;20397;-48
2021/11/25 06:59:30;;;;;;;13.75;8.98;;;5.80;99.90;;;;;;5108784;28;20032;-48
2021/11/25 07:01:58;;;;;;;14.98;9.20;;;5.80;99.90;;;;;;5108181;28;20096;-50
2021/11/25 07:04:23;;;;;;;13.48;9.07;;;5.70;99.90;;;;;;5108788;28;20152;-48
2021/11/25 07:06:49;;;;;;;13.00;8.93;;;5.70;99.90;;;;;;5107686;28;20095;-48
2021/11/25 07:09:15;;;;;;;15.75;8.93;;;5.80;99.90;;;;;;5108762;28;20655;-50
2021/11/25 07:11:40;;;;;;;13.98;8.93;;;5.80;99.90;;;;;;5107757;28;20028;-49
2021/11/25 07:14:08;;;;;;;13.75;8.98;;;5.70;99.90;;;;;;5108417;28;20370;-50
2021/11/25 07:16:34;;;;;;;15.48;9.35;;;5.70;99.90;;;;;;5108236;28;20016;-47
2021/11/25 07:18:59;;;;;;;16.20;10.20;;;5.70;99.90;;;;;;5108278;28;20034;-48
2021/11/25 07:21:25;;;;;;;14.00;9.10;;;5.70;99.90;;;;;;5103236;28;20388;-49
2021/11/25 07:23:50;;;;;;;13.98;8.93;;;5.70;99.90;;;;;;5096948;28;20028;-47
2021/11/25 07:26:16;;;;;;;12.52;8.73;;;5.70;99.90;;;;;;5108639;28;20020;-47
2021/11/25 07:28:42;;;;;;;11.93;8.27;;;5.70;99.90;;;;;;5108668;28;20024;-47
2021/11/25 07:31:09;;;;;;;13.48;8.60;;;5.80;99.90;;;;;;5107966;28;20023;-43
2021/11/25 07:33:35;;;;;;;13.90;8.45;;;5.70;99.90;;;;;;5085320;28;20494;-44
2021/11/25 07:36:00;;;;;;;10.90;7.80;;;5.70;99.90;;;;;;5078252;28;20170;-44
2021/11/25 07:38:26;;;;;;;11.77;8.00;;;5.70;99.90;;;;;;5079424;28;20106;-43
2021/11/25 07:40:52;;;;;;;14.25;8.55;;;5.70;99.90;;;;;;5065100;28;20055;-44
2021/11/25 07:43:19;;;;;;;13.45;8.60;;;5.70;99.90;;;;;;5066691;28;20437;-43
2021/11/25 07:45:45;;;;;;;14.77;8.93;;;5.70;99.90;;;;;;5065814;28;20704;-42
2021/11/25 07:48:12;;;;;;;12.98;8.57;;;5.70;99.90;;;;;;5067148;28;20107;-43
2021/11/25 07:50:39;;;;;;;16.65;8.75;;;5.70;99.90;;;;;;5066392;28;20028;-43
2021/11/25 07:53:06;;;;;;;12.77;8.65;;;5.70;99.90;;;;;;5091759;28;20059;-43
2021/11/25 07:55:32;;;;;;;15.52;9.10;;;5.70;99.90;;;;;;5103164;28;20043;-44
2021/11/25 07:57:58;;;;;;;13.77;8.63;;;5.80;99.90;;;;;;5108971;28;20020;-43
2021/11/25 08:00:27;;;;;;;13.60;8.77;;;5.80;99.90;;;;;;5109956;28;20042;-44
2021/11/25 08:02:53;;;;;;;12.75;8.35;;;5.80;99.90;;;;;;5111269;28;20046;-44
2021/11/25 08:05:19;;;;;;;13.77;9.55;;;5.80;99.90;;;;;;5111950;28;20430;-43
2021/11/25 08:07:45;;;;;;;12.43;8.00;;;5.80;99.90;;;;;;5111070;28;20043;-44
2021/11/25 08:10:12;;;;;;;12.20;7.93;;;5.80;99.90;;;;;;5112244;28;20023;-44
2021/11/25 08:12:39;;;;;;;14.27;9.02;;;5.80;99.90;;;;;;5113045;28;20544;-42
2021/11/25 08:15:06;;;;;;;18.77;9.77;;;5.70;99.90;;;;;;5113515;28;20421;-43
2021/11/25 08:17:31;;;;;;;16.83;9.52;;;5.80;99.90;;;;;;5113154;28;20027;-44
2021/11/25 08:19:57;;;;;;;15.23;9.13;;;5.80;99.90;;;;;;5112975;28;20038;-43
2021/11/25 08:22:23;;;;;;;17.88;8.80;;;5.80;99.90;;;;;;5105376;28;20028;-43
2021/11/25 08:24:48;;;;;;;16.48;9.43;;;5.80;99.90;;;;;;5104439;28;20028;-45
2021/11/25 08:27:14;;;;;;;15.90;9.93;;;5.80;99.90;;;;;;5111717;27;20038;-43
2021/11/25 08:29:43;;;;;;;13.93;9.05;;;5.80;99.90;;;;;;5111144;28;20076;-43
2021/11/25 08:32:09;;;;;;;16.30;9.52;;;5.80;99.90;;;;;;5111395;28;20023;-42
2021/11/25 08:34:36;;;;;;;13.60;9.27;;;5.80;99.90;;;;;;5112849;28;20072;-43
2021/11/25 08:37:01;;;;;;;14.55;9.43;;;5.80;99.90;;;;;;5111251;28;20481;-43
2021/11/25 08:39:27;;;;;;;14.13;9.15;;;5.90;99.90;;;;;;5111094;28;20054;-44
2021/11/25 08:41:53;;;;;;;15.50;9.65;;;5.90;99.90;;;;;;5110990;28;20504;-43
2021/11/25 08:44:19;;;;;;;15.50;9.68;;;5.80;99.90;;;;;;5110140;28;20212;-44
2021/11/25 08:46:44;;;;;;;16.48;9.65;;;5.80;99.90;;;;;;5111264;28;20906;-44
2021/11/25 08:49:11;;;;;;;15.65;9.63;;;5.80;99.90;;;;;;5111390;28;20032;-44
2021/11/25 08:51:37;;;;;;;17.33;8.75;;;6.00;99.90;;;;;;5106256;28;20024;-44
2021/11/25 08:54:03;;;;;;;12.65;9.13;;;6.00;99.90;;;;;;5101242;28;20024;-44
2021/11/25 08:56:29;;;;;;;17.00;10.05;;;6.10;99.90;;;;;;5111134;28;20367;-45
2021/11/25 08:58:56;;;;;;;11.98;8.88;;;6.20;99.90;;;;;;5108578;28;20030;-43
2021/11/25 09:01:21;;;;;;;14.35;9.35;;;6.10;99.90;;;;;;5109338;28;20073;-43
2021/11/25 09:03:47;;;;;;;12.95;9.23;;;6.20;99.90;;;;;;5110611;28;20502;-44
2021/11/25 09:06:13;;;;;;;15.57;9.45;;;6.10;99.90;;;;;;5111073;28;20046;-46
2021/11/25 09:08:40;;;;;;;10.55;7.93;;;6.10;99.90;;;;;;5110520;28;20500;-43
2021/11/25 09:11:05;;;;;;;12.25;9.15;;;6.10;99.90;;;;;;5109455;28;20027;-43
2021/11/25 09:13:31;;;;;;;21.70;10.00;;;6.20;99.90;;;;;;5110527;28;20020;-44
2021/11/25 09:15:58;;;;;;;14.80;9.57;;;6.20;99.90;;;;;;5110498;28;20016;-47
2021/11/25 09:18:24;;;;;;;19.15;10.18;;;6.10;99.90;;;;;;5110483;28;20020;-44
2021/11/25 09:20:49;;;;;;;13.13;9.13;;;6.20;99.90;;;;;;5095721;28;20036;-44
2021/11/25 09:23:17;;;;;;;13.80;9.88;;;6.20;99.90;;;;;;5081103;28;20493;-44
2021/11/25 09:25:44;;;;;;;18.67;10.07;;;6.20;99.90;;;;;;5098651;28;20080;-45
2021/11/25 09:28:13;;;;;;;17.27;10.05;;;6.30;99.90;;;;;;5111506;28;20045;-44
2021/11/25 09:30:39;;;;;;;14.95;9.25;;;6.30;99.90;;;;;;5110078;27;20024;-43
2021/11/25 09:33:06;;;;;;;14.45;9.13;;;6.40;99.90;;;;;;5109806;28;20106;-43
2021/11/25 09:35:32;;;;;;;17.08;10.02;;;6.40;99.90;;;;;;5109819;28;20011;-44
2021/11/25 09:37:58;;;;;;;12.45;8.82;;;6.50;99.90;;;;;;5108823;28;20431;-44
2021/11/25 09:40:27;;;;;;;14.80;9.93;;;6.50;99.90;;;;;;5109058;28;20034;-44
2021/11/25 09:43:05;;;;;;;17.02;10.48;;;6.50;99.90;;;;;;5108838;28;20126;-44
2021/11/25 09:45:32;;;;;;;18.00;10.85;;;6.50;99.90;;;;;;5108989;28;20342;-45
2021/11/25 09:48:02;;;;;;;15.90;10.88;;;6.60;99.90;;;;;;5109146;28;20038;-44
2021/11/25 09:50:30;;;;;;;18.27;11.07;;;6.60;99.90;;;;;;5108870;28;20066;-44
2021/11/25 09:53:00;;;;;;;18.80;12.02;;;6.70;99.90;;;;;;5102965;28;20016;-43
2021/11/25 09:55:27;;;;;;;16.40;8.35;;;6.80;99.90;;;;;;5103296;28;20031;-46
2021/11/25 09:57:53;;;;;;;19.13;11.73;;;6.90;99.90;;;;;;5108994;28;20088;-47
2021/11/25 10:00:22;;;;;;;21.02;12.77;;;7.00;99.90;;;;;;5108990;28;20028;-46
2021/11/25 10:02:48;;;;;;;19.58;12.18;;;7.00;99.90;;;;;;5089007;28;20035;-44
2021/11/25 10:05:14;;;;;;;19.60;12.27;;;7.10;99.90;;;;;;5089855;28;20500;-45
2021/11/25 10:07:41;;;;;;;18.88;12.48;;;7.10;99.90;;;;;;5089958;28;20116;-44
2021/11/25 10:10:20;;;;;;;19.40;13.40;;;7.10;99.90;;;;;;5089707;28;20421;-44
2021/11/25 10:12:49;;;;;;;25.02;13.38;;;7.20;99.90;;;;;;5089526;28;20088;-44
2021/11/25 10:15:36;;;;;;;17.17;12.80;;;7.40;99.90;;;;;;5089413;28;20030;-44
2021/11/25 10:18:09;;;;;;;19.60;11.95;;;8.30;99.90;;;;;;5088961;28;20028;-46
2021/11/25 10:20:37;;;;;;;16.60;12.52;;;9.80;99.90;;;;;;5086854;28;20032;-47
2021/11/25 10:23:04;;;;;;;19.10;12.68;;;11.20;99.80;;;;;;5090603;28;20402;-44
2021/11/25 10:25:56;;;;;;;16.23;11.77;;;12.20;96.20;;;;;;5103107;28;20023;-47
2021/11/25 10:28:44;;;;;;;17.73;11.82;;;13.20;93.20;;;;;;5108862;28;20030;-45
2021/11/25 10:31:20;;;;;;;14.98;11.95;;;13.90;88.90;;;;;;5109010;28;20016;-48
2021/11/25 10:33:56;;;;;;;14.75;11.02;;;14.00;89.50;;;;;;5109740;28;20647;-45
2021/11/25 10:39:15;;;;;;;16.92;11.30;;;15.00;84.30;;;;;;5108664;28;20027;-47
2021/11/25 10:41:47;;;;;;;13.77;10.90;;;15.90;77.30;;;;;;5108088;28;20019;-48
2021/11/25 10:44:17;;;;;;;14.73;11.20;;;15.80;76.60;;;;;;5110022;28;20066;-46
2021/11/25 10:47:28;;;;;;;13.43;10.20;;;15.60;75.40;;;;;;5108911;28;20032;-45
2021/11/25 10:50:01;;;;;;;;;;;15.70;75.90;;;;;;5087601;28;20678;-48
2021/11/25 10:52:37;;;;;;;14.10;11.43;;;16.30;72.90;;;;;;5093007;28;19908;-45
2021/11/25 10:55:05;;;;;;;15.05;11.70;;;16.50;72.60;;;;;;5091573;28;20099;-46
2021/11/25 10:57:43;;;;;;;15.35;11.57;;;17.00;69.20;;;;;;5089759;28;20046;-45
2021/11/25 11:00:24;;;;;;;16.20;12.25;;;16.30;69.10;;;;;;5087045;28;20119;-45
2021/11/25 11:03:09;;;;;;;15.27;11.13;;;16.60;67.30;;;;;;5087314;28;20020;-43
2021/11/25 11:05:58;;;;;;;16.98;13.18;;;16.40;68.30;;;;;;5088143;28;20535;-43
2021/11/25 11:08:41;;;;;;;17.63;12.52;;;15.40;69.60;;;;;;5086813;28;20119;-42
2021/11/25 11:11:08;;;;;;;18.70;12.73;;;14.80;73.80;;;;;;5089043;28;20024;-44
2021/11/25 11:13:41;;;;;;;18.17;12.20;;;14.60;75.00;;;;;;5089067;28;20044;-45
2021/11/25 11:21:08;;;;;;;21.20;16.00;;;12.60;81.30;;;;;;5087303;28;20107;-47
2021/11/25 11:23:34;;;;;;;23.30;16.08;;;12.00;83.40;;;;;;5089338;28;20574;-46
2021/11/25 11:25:59;;;;;;;25.00;16.15;;;11.40;84.40;;;;;;5104914;28;20023;-44
2021/11/25 11:28:27;;;;;;;24.27;15.95;;;10.90;87.40;;;;;;5108618;28;20088;-44
2021/11/25 11:30:53;;;;;;;23.45;15.85;;;10.40;90.60;;;;;;5107714;28;20104;-44
2021/11/25 11:33:19;;;;;;;26.17;17.38;;;10.40;91.80;;;;;;5107577;28;20028;-47
2021/11/25 11:35:46;;;;;;;22.05;14.88;;;10.20;92.10;;;;;;5108139;28;20473;-45
2021/11/25 11:38:13;;;;;;;25.88;16.63;;;9.80;93.20;;;;;;5109526;28;20088;-46
2021/11/25 11:40:41;;;;;;;21.75;15.57;;;9.90;93.60;;;;;;5109161;28;20400;-44
2021/11/25 11:43:07;;;;;;;28.33;17.92;;;9.70;94.60;;;;;;5107541;28;20552;-44
2021/11/25 11:45:38;;;;;;;27.20;15.52;;;9.50;95.40;;;;;;5095894;28;20337;-43
2021/11/25 11:48:06;;;;;;;31.27;17.33;;;9.40;96.10;;;;;;5087092;28;20020;-44
2021/11/25 11:50:42;;;;;;;22.45;15.55;;;9.20;96.90;;;;;;5086496;28;20036;-44
2021/11/25 11:53:17;;;;;;;23.60;15.35;;;9.10;97.70;;;;;;5084944;28;20023;-44
2021/11/25 11:56:05;;;;;;;25.85;17.13;;;9.00;98.20;;;;;;5084380;28;20016;-44
2021/11/25 11:58:41;;;;;;;30.60;17.80;;;8.80;98.30;;;;;;5084940;28;20020;-43
2021/11/25 12:01:16;;;;;;;26.30;16.38;;;8.70;99.50;;;;;;5084940;28;20026;-45
2021/11/25 12:03:45;;;;;;;27.58;17.23;;;8.60;99.90;;;;;;5085080;28;20031;-44
2021/11/25 12:06:31;;;;;;;26.85;16.77;;;8.40;99.90;;;;;;5087299;28;20024;-46
2021/11/25 12:08:56;;;;;;;28.45;18.00;;;8.30;99.90;;;;;;5086189;28;20381;-44
2021/11/25 12:11:22;;;;;;;26.27;16.92;;;8.20;99.90;;;;;;5083946;28;20028;-44
2021/11/25 12:13:59;;;;;;;26.55;18.05;;;8.10;99.90;;;;;;5087801;28;20320;-44
2021/11/25 12:16:26;;;;;;;28.75;17.25;;;8.10;99.90;;;;;;5087168;28;20158;-45
2021/11/25 12:18:52;;;;;;;27.73;18.17;;;8.10;99.90;;;;;;5087538;28;20043;-44
2021/11/25 12:21:44;;;;;;;31.02;18.85;;;7.90;99.90;;;;;;5086070;28;20113;-43
2021/11/25 12:24:22;;;;;;;27.48;19.02;;;7.80;99.90;;;;;;5099334;28;20584;-44
2021/11/25 12:27:16;;;;;;;30.30;18.73;;;7.70;99.90;;;;;;5100857;28;20024;-43
2021/11/25 12:29:46;;;;;;;29.33;19.20;;;7.60;99.90;;;;;;5089051;28;20251;-44
2021/11/25 12:35:00;;;;;;;27.88;17.55;;;7.50;99.90;;;;;;5088634;28;20523;-44
2021/11/25 12:37:41;;;;;;;33.03;19.45;;;7.60;99.90;;;;;;5088537;28;20016;-44
2021/11/25 12:40:27;;;;;;;28.63;18.60;;;7.70;99.90;;;;;;5087729;28;20101;-43
2021/11/25 12:43:12;;;;;;;28.40;18.00;;;7.60;99.90;;;;;;5064051;28;20064;-44
2021/11/25 12:45:40;;;;;;;27.38;16.83;;;7.60;99.90;;;;;;5068396;28;20599;-43
2021/11/25 12:48:05;;;;;;;28.75;17.40;;;7.70;99.90;;;;;;5072157;28;20016;-44
2021/11/25 12:50:33;;;;;;;27.33;17.83;;;7.80;99.90;;;;;;5075599;28;20101;-45
2021/11/25 12:53:16;;;;;;;23.88;15.77;;;7.70;99.90;;;;;;5091048;28;20008;-44
2021/11/25 12:55:45;;;;;;;26.70;16.33;;;7.60;99.90;;;;;;5088752;28;20038;-44
2021/11/25 12:58:12;;;;;;;23.73;17.15;;;7.70;99.90;;;;;;5091880;28;20020;-44
2021/11/25 13:00:41;;;;;;;30.48;17.88;;;7.70;99.90;;;;;;5090949;28;20484;-44
2021/11/25 13:03:11;;;;;;;30.50;17.83;;;7.60;99.90;;;;;;5091265;28;20103;-44
2021/11/25 13:05:42;;;;;;;29.23;18.03;;;7.60;99.90;;;;;;5090833;28;20031;-46
2021/11/25 13:08:10;;;;;;;24.80;17.13;;;7.50;99.90;;;;;;5090033;28;20258;-44